createdAt,value
2018-06-14T00:01:33.980Z,60.80
2018-06-14T00:04:04.042Z,60.90
2018-06-14T00:06:34.168Z,61.10
2018-06-14T00:09:04.821Z,61.30
2018-06-14T00:11:35.012Z,62.30
2018-06-14T00:14:05.574Z,61.50
2018-06-14T00:16:35.843Z,61.60
2018-06-14T00:19:06.077Z,61.70
2018-06-14T00:21:36.231Z,62.00
2018-06-14T00:24:06.449Z,61.90
2018-06-14T00:26:36.563Z,61.90
2018-06-14T00:29:06.774Z,61.70
2018-06-14T00:31:36.939Z,61.30
2018-06-14T00:34:07.252Z,61.30
2018-06-14T00:36:37.436Z,61.70
2018-06-14T00:39:08.828Z,62.30
2018-06-14T00:41:39.045Z,62.20
2018-06-14T00:44:09.211Z,62.30
2018-06-14T00:46:39.498Z,62.60
2018-06-14T00:49:09.737Z,63.00
2018-06-14T00:51:40.003Z,62.80
2018-06-14T00:54:10.215Z,63.00
2018-06-14T00:56:56.522Z,63.20
2018-06-14T00:59:26.649Z,63.10
2018-06-14T01:01:56.790Z,63.30
2018-06-14T01:04:26.989Z,63.50
2018-06-14T01:06:57.180Z,63.50
2018-06-14T01:09:27.376Z,63.70
2018-06-14T01:11:57.585Z,64.50
2018-06-14T01:14:27.748Z,63.90
2018-06-14T01:16:57.949Z,64.10
2018-06-14T01:19:28.257Z,64.30
2018-06-14T01:21:58.467Z,64.30
2018-06-14T01:24:28.593Z,64.20
2018-06-14T01:26:58.812Z,64.30
2018-06-14T01:29:28.981Z,64.40
2018-06-14T01:31:59.153Z,64.80
2018-06-14T01:34:29.363Z,65.30
2018-06-14T01:36:59.654Z,65.70
2018-06-14T01:39:29.845Z,65.90
2018-06-14T01:42:00.056Z,65.70
2018-06-14T01:44:30.241Z,65.50
2018-06-14T01:47:00.376Z,65.20
2018-06-14T01:49:30.611Z,65.20
2018-06-14T01:52:00.772Z,65.10
2018-06-14T01:54:30.918Z,65.10
2018-06-14T01:57:01.091Z,64.90
2018-06-14T01:59:31.295Z,65.10
2018-06-14T02:02:01.537Z,65.20
2018-06-14T02:04:31.853Z,65.90
2018-06-14T02:07:02.067Z,66.10
2018-06-14T02:09:32.204Z,65.80
2018-06-14T02:12:02.439Z,66.20
2018-06-14T02:14:32.616Z,66.10
2018-06-14T02:17:02.851Z,66.40
2018-06-14T02:19:32.984Z,66.40
2018-06-14T02:22:03.257Z,66.30
2018-06-14T02:24:33.436Z,66.50
2018-06-14T02:27:03.673Z,66.70
2018-06-14T02:29:33.908Z,66.60
2018-06-14T02:32:04.132Z,66.70
2018-06-14T02:34:37.271Z,66.80
2018-06-14T02:37:07.579Z,67.00
2018-06-14T02:39:37.818Z,67.10
2018-06-14T02:42:08.053Z,67.10
2018-06-14T02:44:38.353Z,67.40
2018-06-14T02:47:08.489Z,67.30
2018-06-14T02:49:38.812Z,67.40
2018-06-14T02:52:09.096Z,67.80
2018-06-14T02:54:39.290Z,67.90
2018-06-14T02:57:09.573Z,68.10
2018-06-14T02:59:39.747Z,68.30
2018-06-14T03:02:09.971Z,68.60
2018-06-14T03:04:40.205Z,68.80
2018-06-14T03:07:10.330Z,68.70
2018-06-14T03:09:40.637Z,68.90
2018-06-14T03:12:10.869Z,69.20
2018-06-14T03:14:41.136Z,69.80
2018-06-14T03:17:11.634Z,70.00
2018-06-14T03:19:41.982Z,71.00
2018-06-14T03:22:12.260Z,70.40
2018-06-14T03:24:42.535Z,70.60
2018-06-14T03:27:12.794Z,70.50
2018-06-14T03:29:43.010Z,70.70
2018-06-14T03:32:13.223Z,71.10
2018-06-14T03:34:43.513Z,70.90
2018-06-14T03:37:13.691Z,71.00
2018-06-14T03:39:43.865Z,70.80
2018-06-14T03:42:15.299Z,70.70
2018-06-14T03:44:45.596Z,70.90
2018-06-14T03:47:15.861Z,70.90
2018-06-14T03:49:46.171Z,70.90
2018-06-14T03:52:16.407Z,71.20
2018-06-14T03:54:46.620Z,71.40
2018-06-14T03:57:16.856Z,71.40
2018-06-14T03:59:47.016Z,71.70
2018-06-14T04:02:17.256Z,71.70
2018-06-14T04:04:47.430Z,71.50
2018-06-14T04:07:17.682Z,71.90
2018-06-14T04:09:47.977Z,72.10
2018-06-14T04:12:18.178Z,71.90
2018-06-14T04:14:48.447Z,72.20
2018-06-14T04:17:18.810Z,72.30
2018-06-14T04:19:48.998Z,72.40
2018-06-14T04:22:19.323Z,72.60
2018-06-14T04:24:49.533Z,73.00
2018-06-14T04:27:19.876Z,73.10
2018-06-14T04:29:50.217Z,73.20
2018-06-14T04:32:20.594Z,73.30
2018-06-14T04:34:50.836Z,73.90
2018-06-14T04:37:21.105Z,74.10
2018-06-14T04:39:51.432Z,74.60
2018-06-14T04:42:21.620Z,74.60
2018-06-14T04:44:52.001Z,74.70
2018-06-14T04:47:22.283Z,74.50
2018-06-14T04:49:52.541Z,74.50
2018-06-14T04:52:22.856Z,74.90
2018-06-14T04:54:53.096Z,75.00
2018-06-14T04:57:23.337Z,75.20
2018-06-14T04:59:53.612Z,75.50
2018-06-14T05:02:23.953Z,75.50
2018-06-14T05:04:54.272Z,75.60
2018-06-14T05:07:24.622Z,75.80
2018-06-14T05:09:54.889Z,75.90
2018-06-14T05:12:25.148Z,75.70
2018-06-14T05:14:55.443Z,75.40
2018-06-14T05:17:25.651Z,75.10
2018-06-14T05:19:55.937Z,75.30
2018-06-14T05:22:26.111Z,75.70
2018-06-14T05:24:56.314Z,76.10
2018-06-14T05:27:26.531Z,75.70
2018-06-14T05:29:56.696Z,76.00
2018-06-14T05:32:26.838Z,76.40
2018-06-14T05:34:57.038Z,76.20
2018-06-14T05:37:27.253Z,76.20
2018-06-14T05:39:57.432Z,76.10
2018-06-14T05:42:27.771Z,75.80
2018-06-14T05:44:57.898Z,76.30
2018-06-14T05:47:28.106Z,76.00
2018-06-14T05:49:58.933Z,75.50
2018-06-14T05:52:29.057Z,75.50
2018-06-14T05:54:59.292Z,75.00
2018-06-14T05:57:29.597Z,74.40
2018-06-14T05:59:59.833Z,73.60
2018-06-14T06:02:30.006Z,73.10
2018-06-14T06:05:00.252Z,72.50
2018-06-14T06:07:30.454Z,71.90
2018-06-14T06:10:00.682Z,71.40
2018-06-14T06:12:30.917Z,70.90
2018-06-14T06:15:01.172Z,70.40
2018-06-14T06:17:31.448Z,70.00
2018-06-14T06:20:01.734Z,69.80
2018-06-14T06:22:31.981Z,69.20
2018-06-14T06:25:02.192Z,68.50
2018-06-14T06:27:32.457Z,67.90
2018-06-14T06:30:02.752Z,67.50
2018-06-14T06:32:32.998Z,67.30
2018-06-14T06:35:03.654Z,66.90
2018-06-14T06:37:34.332Z,66.50
2018-06-14T06:40:04.612Z,65.70
2018-06-14T06:42:34.809Z,65.20
2018-06-14T06:45:06.175Z,65.20
2018-06-14T06:47:39.353Z,65.00
2018-06-14T06:50:09.653Z,64.50
2018-06-14T06:52:39.899Z,63.70
2018-06-14T06:55:10.153Z,62.60
2018-06-14T06:57:40.493Z,61.80
2018-06-14T07:00:10.790Z,60.90
2018-06-14T07:02:41.010Z,60.70
2018-06-14T07:05:11.293Z,61.00
2018-06-14T07:07:41.490Z,60.40
2018-06-14T07:10:11.698Z,60.40
2018-06-14T07:12:41.888Z,60.00
2018-06-14T07:15:12.184Z,59.30
2018-06-14T07:17:42.394Z,59.10
2018-06-14T07:20:12.595Z,58.80
2018-06-14T07:22:42.833Z,58.30
2018-06-14T07:25:13.161Z,58.10
2018-06-14T07:27:43.390Z,58.00
2018-06-14T07:30:13.659Z,57.60
2018-06-14T07:32:43.989Z,57.60
2018-06-14T07:35:14.292Z,57.50
2018-06-14T07:37:44.532Z,57.80
2018-06-14T07:40:14.776Z,57.30
2018-06-14T07:42:45.092Z,57.10
2018-06-14T07:45:15.416Z,57.30
2018-06-14T07:47:47.171Z,57.20
2018-06-14T07:50:18.420Z,57.00
2018-06-14T07:52:48.771Z,56.70
2018-06-14T07:55:19.011Z,56.40
2018-06-14T07:57:49.264Z,55.80
2018-06-14T08:00:19.493Z,55.50
2018-06-14T08:02:49.754Z,54.80
2018-06-14T08:05:20.060Z,53.90
2018-06-14T08:07:50.453Z,53.70
2018-06-14T08:10:20.669Z,54.00
2018-06-14T08:12:50.971Z,54.00
2018-06-14T08:15:21.203Z,54.10
2018-06-14T08:17:51.519Z,52.40
2018-06-14T08:20:21.880Z,52.80
2018-06-14T08:22:52.187Z,52.70
2018-06-14T08:25:22.384Z,52.20
2018-06-14T08:27:52.537Z,51.80
2018-06-14T08:30:23.618Z,51.60
2018-06-14T08:32:53.896Z,51.60
2018-06-14T08:35:24.323Z,51.10
2018-06-14T08:37:54.618Z,51.30
2018-06-14T08:40:25.093Z,51.00
2018-06-14T08:42:55.368Z,50.30
2018-06-14T08:45:25.609Z,50.40
2018-06-14T08:47:55.857Z,51.00
2018-06-14T08:50:26.241Z,50.80
2018-06-14T08:52:56.532Z,49.50
2018-06-14T08:55:26.674Z,49.30
2018-06-14T08:57:56.980Z,49.70
2018-06-14T09:00:27.357Z,49.70
2018-06-14T09:02:57.621Z,49.80
2018-06-14T09:05:27.807Z,49.20
2018-06-14T09:07:58.097Z,48.50
2018-06-14T09:10:28.284Z,48.20
2018-06-14T09:12:58.556Z,48.10
2018-06-14T09:15:28.689Z,47.60
2018-06-14T09:17:58.938Z,47.60
2018-06-14T09:20:29.117Z,47.40
2018-06-14T09:22:59.294Z,47.60
2018-06-14T09:25:29.521Z,47.70
2018-06-14T09:27:59.862Z,47.90
2018-06-14T09:30:30.060Z,48.00
2018-06-14T09:33:00.385Z,47.60
2018-06-14T09:35:30.773Z,47.50
2018-06-14T09:38:01.136Z,47.90
2018-06-14T09:40:31.452Z,47.70
2018-06-14T09:43:01.869Z,47.40
2018-06-14T09:45:31.986Z,47.60
2018-06-14T09:48:02.254Z,47.70
2018-06-14T09:50:33.866Z,47.70
2018-06-14T09:53:04.461Z,47.20
2018-06-14T09:55:34.697Z,46.80
2018-06-14T09:58:05.247Z,46.40
2018-06-14T10:00:35.599Z,46.20
2018-06-14T10:03:06.151Z,46.40
2018-06-14T10:05:36.363Z,46.00
2018-06-14T10:08:06.608Z,45.50
2018-06-14T10:10:36.838Z,45.70
2018-06-14T10:13:07.093Z,45.90
2018-06-14T10:15:37.407Z,45.70
2018-06-14T10:18:07.863Z,45.60
2018-06-14T10:20:38.368Z,46.10
2018-06-14T10:23:08.947Z,46.30
2018-06-14T10:25:43.302Z,46.00
2018-06-14T10:28:33.725Z,46.10
2018-06-14T10:31:08.394Z,45.90
2018-06-14T10:33:44.435Z,45.90
2018-06-14T10:36:31.934Z,45.30
2018-06-14T10:39:17.508Z,45.40
2018-06-14T10:42:02.552Z,45.30
2018-06-14T10:44:37.096Z,44.90
2018-06-14T10:47:28.199Z,45.20
2018-06-14T10:50:07.721Z,44.90
2018-06-14T10:52:41.774Z,44.60
2018-06-14T10:55:19.499Z,44.80
2018-06-14T10:58:04.775Z,44.60
2018-06-14T11:00:39.520Z,44.60
2018-06-14T11:03:23.240Z,45.00
2018-06-14T11:06:26.897Z,45.30
2018-06-14T11:09:06.548Z,44.70
2018-06-14T11:11:45.084Z,44.80
2018-06-14T11:14:16.598Z,44.70
2018-06-14T11:16:47.400Z,44.90
2018-06-14T11:19:17.915Z,45.00
2018-06-14T11:21:52.292Z,44.90
2018-06-14T11:24:22.732Z,43.90
2018-06-14T11:26:54.953Z,43.80
2018-06-14T11:29:26.332Z,44.10
2018-06-14T11:31:58.517Z,43.80
2018-06-14T11:34:32.417Z,43.80
2018-06-14T11:37:15.681Z,44.10
2018-06-14T11:39:46.696Z,43.90
2018-06-14T11:42:20.600Z,43.40
2018-06-14T11:44:52.217Z,43.30
2018-06-14T11:47:23.990Z,43.30
2018-06-14T11:49:55.173Z,43.70
2018-06-14T11:52:27.322Z,43.70
2018-06-14T11:55:00.722Z,44.10
2018-06-14T11:57:32.323Z,44.30
2018-06-14T12:00:03.317Z,44.20
2018-06-14T12:02:36.455Z,44.00
2018-06-14T12:05:10.529Z,43.80
2018-06-14T12:07:43.188Z,44.00
2018-06-14T12:10:13.630Z,44.20
2018-06-14T12:12:44.823Z,44.60
2018-06-14T12:15:16.056Z,44.40
2018-06-14T12:17:46.560Z,44.10
2018-06-14T12:20:20.281Z,44.00
2018-06-14T12:22:52.441Z,43.50
2018-06-14T12:25:24.088Z,43.70
2018-06-14T12:27:55.693Z,43.30
2018-06-14T12:30:29.019Z,42.80
2018-06-14T12:33:01.806Z,43.20
2018-06-14T12:35:32.202Z,43.40
2018-06-14T12:38:02.948Z,43.00
2018-06-14T12:40:34.479Z,42.70
2018-06-14T12:43:06.838Z,42.60
2018-06-14T12:48:17.509Z,42.80
2018-06-14T12:50:49.335Z,42.90
2018-06-14T12:53:19.720Z,42.70
2018-06-14T12:55:51.823Z,42.60
2018-06-14T12:58:22.386Z,42.30
2018-06-14T13:00:52.577Z,42.20
2018-06-14T13:03:22.968Z,42.30
2018-06-14T13:05:53.299Z,42.30
2018-06-14T13:08:23.650Z,42.60
2018-06-14T13:10:53.862Z,42.70
2018-06-14T13:13:24.251Z,42.50
2018-06-14T13:15:54.825Z,42.10
2018-06-14T13:18:24.948Z,42.30
2018-06-14T13:20:55.320Z,42.30
2018-06-14T13:23:25.692Z,42.00
2018-06-14T13:25:56.047Z,41.90
2018-06-14T13:28:26.221Z,41.50
2018-06-14T13:30:56.467Z,41.60
2018-06-14T13:33:26.834Z,41.50
2018-06-14T13:35:57.225Z,41.60
2018-06-14T13:38:27.644Z,41.80
2018-06-14T13:40:57.938Z,41.70
2018-06-14T13:43:28.552Z,41.40
2018-06-14T13:45:58.820Z,41.30
2018-06-14T13:48:29.132Z,41.10
2018-06-14T13:50:59.752Z,40.60
2018-06-14T13:53:30.496Z,40.80
2018-06-14T13:56:01.795Z,41.10
2018-06-14T13:58:53.111Z,41.40
2018-06-14T14:01:47.577Z,41.60
2018-06-14T14:04:34.503Z,41.30
2018-06-14T14:08:30.955Z,41.10
2018-06-14T14:11:24.793Z,41.10
2018-06-14T14:15:58.643Z,40.90
2018-06-14T14:18:57.550Z,40.90
2018-06-14T14:21:42.800Z,41.00
2018-06-14T14:27:05.049Z,40.80
2018-06-14T14:29:52.403Z,41.20
2018-06-14T14:32:48.668Z,41.60
2018-06-14T14:35:39.273Z,42.00
2018-06-14T14:38:33.728Z,42.60
2018-06-14T14:41:56.760Z,43.40
2018-06-14T14:45:54.348Z,44.10
2018-06-14T14:59:41.068Z,45.30
2018-06-14T15:02:11.627Z,46.40
2018-06-14T15:04:42.191Z,46.60
2018-06-14T15:07:13.237Z,46.90
2018-06-14T15:09:44.416Z,47.50
2018-06-14T15:12:15.774Z,48.00
2018-06-14T15:14:46.797Z,48.50
2018-06-14T15:17:18.022Z,48.80
2018-06-14T15:19:49.133Z,49.10
2018-06-14T15:22:20.472Z,49.30
2018-06-14T15:24:51.796Z,49.50
2018-06-14T15:27:23.133Z,50.00
2018-06-14T15:29:54.397Z,50.30
2018-06-14T15:32:25.729Z,50.90
2018-06-14T15:34:57.090Z,51.90
2018-06-14T15:37:28.313Z,52.00
2018-06-14T15:40:00.493Z,52.30
2018-06-14T15:42:31.784Z,52.50
2018-06-14T15:45:03.015Z,52.80
2018-06-14T15:47:34.340Z,53.40
2018-06-14T15:50:05.687Z,53.40
2018-06-14T15:52:36.980Z,54.00
2018-06-14T15:55:23.460Z,54.30
2018-06-14T15:57:54.685Z,54.40
2018-06-14T16:00:28.507Z,54.70
2018-06-14T16:02:58.696Z,55.20
2018-06-14T16:05:29.089Z,55.40
2018-06-14T16:07:59.278Z,55.90
2018-06-14T16:10:32.354Z,56.10
2018-06-14T16:13:02.517Z,56.40
2018-06-14T16:15:33.377Z,56.50
2018-06-14T16:18:03.812Z,57.00
2018-06-14T16:20:34.205Z,57.40
2018-06-14T16:23:04.454Z,57.60
2018-06-14T16:25:35.074Z,58.00
2018-06-14T16:28:05.390Z,58.60
2018-06-14T16:30:36.924Z,58.10
2018-06-14T16:33:08.099Z,58.60
2018-06-14T16:35:38.675Z,59.00
2018-06-14T16:38:09.257Z,58.90
2018-06-14T16:40:39.737Z,59.00
2018-06-14T16:43:10.578Z,59.40
2018-06-14T16:45:40.983Z,59.70
2018-06-14T16:48:11.321Z,59.60
2018-06-14T16:50:41.684Z,59.80
2018-06-14T16:53:11.950Z,60.00
2018-06-14T16:55:42.143Z,60.20
2018-06-14T16:58:12.229Z,60.80
2018-06-14T17:00:42.262Z,60.60
2018-06-14T17:03:12.377Z,61.20
2018-06-14T17:05:42.410Z,61.20
2018-06-14T17:08:12.587Z,61.80
2018-06-14T17:10:42.662Z,62.10
2018-06-14T17:13:12.859Z,62.30
2018-06-14T17:15:42.818Z,63.00
2018-06-14T17:18:12.855Z,64.00
2018-06-14T17:20:43.591Z,64.60
2018-06-14T17:23:13.657Z,65.10
2018-06-14T17:25:47.093Z,65.50
2018-06-14T17:28:17.145Z,65.70
2018-06-14T17:30:48.266Z,66.80
2018-06-14T17:33:29.146Z,67.20
2018-06-14T17:35:59.535Z,67.50
2018-06-14T17:38:29.828Z,67.20
2018-06-14T17:40:59.891Z,68.00
2018-06-14T17:43:29.955Z,67.50
2018-06-14T17:46:00.239Z,67.80
2018-06-14T17:48:30.518Z,68.40
2018-06-14T17:51:00.613Z,68.30
2018-06-14T17:53:30.739Z,68.70
2018-06-14T17:56:00.812Z,69.10
2018-06-14T17:58:30.785Z,69.60
2018-06-14T18:01:00.778Z,69.90
2018-06-14T18:03:30.792Z,69.90
2018-06-14T18:06:02.314Z,70.50
2018-06-14T18:08:32.046Z,71.30
2018-06-14T18:11:02.092Z,71.40
2018-06-14T18:13:32.118Z,72.00
2018-06-14T18:16:02.171Z,72.20
2018-06-14T18:18:32.278Z,72.60
2018-06-14T18:21:02.327Z,72.30
2018-06-14T18:23:32.528Z,72.80
2018-06-14T18:26:02.571Z,72.60
2018-06-14T18:28:32.651Z,73.10
2018-06-14T18:31:02.653Z,73.30
2018-06-14T18:33:32.735Z,73.70
2018-06-14T18:36:02.772Z,74.00
2018-06-14T18:38:32.823Z,74.30
2018-06-14T18:41:02.779Z,74.40
2018-06-14T18:43:32.871Z,74.80
2018-06-14T18:46:03.009Z,74.80
2018-06-14T18:48:33.396Z,75.00
2018-06-14T18:51:03.473Z,75.20
2018-06-14T18:53:33.489Z,75.30
2018-06-14T18:56:03.854Z,75.50
2018-06-14T18:58:33.903Z,75.80
2018-06-14T19:01:03.894Z,75.60
2018-06-14T19:03:33.933Z,75.20
2018-06-14T19:06:04.021Z,75.60
2018-06-14T19:08:34.285Z,75.60
2018-06-14T19:11:04.477Z,76.30
2018-06-14T19:13:34.899Z,76.00
2018-06-14T19:16:04.963Z,76.00
2018-06-14T19:18:36.181Z,75.90
2018-06-14T19:21:06.498Z,76.10
2018-06-14T19:23:36.951Z,75.80
2018-06-14T19:26:08.540Z,76.50
2018-06-14T19:28:38.945Z,76.20
2018-06-14T19:31:09.467Z,76.40
2018-06-14T19:33:39.881Z,76.70
2018-06-14T19:36:10.869Z,76.40
2018-06-14T19:38:41.411Z,76.40
2018-06-14T19:41:11.992Z,76.30
2018-06-14T19:43:42.430Z,76.50
2018-06-14T19:46:13.248Z,76.60
2018-06-14T19:48:43.736Z,76.80
2018-06-14T19:51:15.154Z,76.50
2018-06-14T19:53:46.595Z,77.40
2018-06-14T19:56:17.049Z,76.50
2018-06-14T19:58:47.553Z,76.30
2018-06-14T20:01:17.943Z,76.10
2018-06-14T20:03:48.290Z,76.20
2018-06-14T20:06:18.773Z,76.30
2018-06-14T20:08:49.145Z,76.20
2018-06-14T20:11:19.581Z,76.20
2018-06-14T20:13:50.128Z,76.30
2018-06-14T20:16:20.559Z,76.30
2018-06-14T20:18:51.060Z,76.40
2018-06-14T20:21:21.500Z,76.30
2018-06-14T20:23:51.938Z,76.40
2018-06-14T20:26:22.457Z,76.60
2018-06-14T20:28:52.855Z,76.40
2018-06-14T20:31:23.299Z,76.50
2018-06-14T20:33:53.830Z,76.70
2018-06-14T20:36:24.333Z,77.20
2018-06-14T20:38:54.512Z,77.00
2018-06-14T20:41:24.927Z,77.30
2018-06-14T20:43:55.230Z,77.40
2018-06-14T20:46:25.708Z,77.60
2018-06-14T20:48:56.012Z,78.10
2018-06-14T20:51:26.432Z,78.30
2018-06-14T20:53:56.740Z,77.90
2018-06-14T20:56:27.027Z,77.80
2018-06-14T20:58:57.245Z,78.10
2018-06-14T21:01:27.475Z,78.10
2018-06-14T21:03:57.992Z,78.10
2018-06-14T21:06:28.747Z,78.10
2018-06-14T21:08:59.545Z,78.40
2018-06-14T21:11:29.834Z,78.30
2018-06-14T21:14:00.144Z,78.20
2018-06-14T21:16:30.576Z,78.50
2018-06-14T21:19:01.024Z,78.30
2018-06-14T21:21:31.421Z,78.30
2018-06-14T21:24:01.663Z,78.60
2018-06-14T21:26:32.149Z,78.50
2018-06-14T21:29:02.515Z,78.20
2018-06-14T21:31:32.845Z,78.00
2018-06-14T21:34:03.173Z,78.20
2018-06-14T21:36:33.373Z,78.20
2018-06-14T21:39:04.078Z,78.30
2018-06-14T21:41:34.434Z,78.40
2018-06-14T21:44:04.878Z,78.60
2018-06-14T21:46:35.166Z,78.70
2018-06-14T21:49:05.471Z,78.90
2018-06-14T21:51:35.932Z,79.70
2018-06-14T21:54:06.213Z,78.90
2018-06-14T21:56:36.641Z,79.10
2018-06-14T21:59:06.924Z,79.20
2018-06-14T22:01:37.380Z,79.20
2018-06-14T22:04:07.865Z,79.30
2018-06-14T22:06:38.090Z,79.50
2018-06-14T22:09:09.393Z,79.60
2018-06-14T22:11:39.695Z,80.00
2018-06-14T22:14:10.074Z,80.00
2018-06-14T22:16:40.450Z,80.00
2018-06-14T22:19:10.735Z,79.90
2018-06-14T22:21:41.156Z,80.00
2018-06-14T22:24:11.512Z,80.20
2018-06-14T22:26:41.814Z,80.30
2018-06-14T22:29:12.217Z,80.20
2018-06-14T22:31:42.601Z,80.40
2018-06-14T22:34:29.047Z,80.30
2018-06-14T22:36:59.458Z,80.40
2018-06-14T22:39:29.795Z,80.50
2018-06-14T22:42:00.213Z,80.50
2018-06-14T22:44:30.615Z,80.70
2018-06-14T22:47:00.886Z,81.00
2018-06-14T22:49:31.142Z,80.80
2018-06-14T22:53:05.440Z,80.80
2018-06-14T22:55:35.911Z,80.90
2018-06-14T22:58:06.302Z,80.80
2018-06-14T23:01:54.113Z,80.60
2018-06-14T23:04:26.730Z,80.80
2018-06-14T23:06:57.187Z,81.20
2018-06-14T23:10:41.408Z,80.90
2018-06-14T23:13:16.033Z,80.80
2018-06-14T23:15:46.401Z,80.60
2018-06-14T23:18:16.683Z,80.80
2018-06-14T23:20:46.987Z,80.90
2018-06-14T23:23:17.346Z,80.90
2018-06-14T23:25:47.594Z,81.20
2018-06-14T23:28:17.990Z,81.20
2018-06-14T23:30:48.393Z,81.10
2018-06-14T23:33:18.814Z,81.20
2018-06-14T23:35:49.253Z,81.40
2018-06-14T23:38:19.617Z,81.30
2018-06-14T23:40:49.953Z,81.40
2018-06-14T23:43:20.337Z,81.70
2018-06-14T23:45:50.800Z,81.60
2018-06-14T23:48:21.236Z,81.70
2018-06-14T23:50:51.593Z,81.80
2018-06-14T23:53:22.026Z,81.80
2018-06-14T23:55:52.355Z,81.80
2018-06-14T23:58:22.735Z,82.00
